createdAt,value
2023-04-08T00:00:02.601Z,3.61
2023-04-08T00:02:58.322Z,4.63
2023-04-08T00:05:26.681Z,5.26
2023-04-08T00:07:55.180Z,5.66
2023-04-08T00:10:25.130Z,6.01
2023-04-08T00:12:53.302Z,6.23
2023-04-08T00:15:24.306Z,6.33
2023-04-08T00:17:54.750Z,6.42
2023-04-08T00:20:24.073Z,6.51
2023-04-08T00:22:52.231Z,6.64
2023-04-08T00:25:43.647Z,6.81
2023-04-08T00:28:11.935Z,6.74
2023-04-08T00:30:43.213Z,5.85
2023-04-08T00:33:11.661Z,4.96
2023-04-08T00:35:40.171Z,4.28
2023-04-08T00:38:08.712Z,3.76
2023-04-08T00:41:20.576Z,3.31
2023-04-08T00:44:16.845Z,2.84
2023-04-08T00:46:45.389Z,2.46
2023-04-08T00:49:13.603Z,2.20
2023-04-08T00:51:44.108Z,1.95
2023-04-08T00:54:15.880Z,1.72
2023-04-08T00:56:44.109Z,1.52
2023-04-08T00:59:15.884Z,1.32
2023-04-08T01:02:00.255Z,1.15
2023-04-08T01:04:53.944Z,0.99
2023-04-08T01:07:42.125Z,0.84
2023-04-08T01:10:18.690Z,0.71
2023-04-08T01:12:58.682Z,0.60
2023-04-08T01:15:32.720Z,0.53
2023-04-08T01:18:01.892Z,0.47
2023-04-08T01:20:30.796Z,0.53
2023-04-08T01:23:53.586Z,1.50
2023-04-08T01:26:27.901Z,2.94
2023-04-08T01:28:59.444Z,3.69
2023-04-08T01:32:22.807Z,4.24
2023-04-08T01:34:54.326Z,4.79
2023-04-08T01:37:25.593Z,5.12
2023-04-08T01:39:55.845Z,5.42
2023-04-08T01:42:55.098Z,5.71
2023-04-08T01:45:24.307Z,6.11
2023-04-08T01:47:58.299Z,6.37
2023-04-08T01:50:30.390Z,6.55
2023-04-08T01:53:02.040Z,6.70
2023-04-08T01:55:30.414Z,6.83
2023-04-08T01:58:21.482Z,6.99
2023-04-08T02:00:50.119Z,6.91
2023-04-08T02:03:19.839Z,6.03
2023-04-08T02:05:48.476Z,5.12
2023-04-08T02:08:16.873Z,4.44
2023-04-08T02:10:45.567Z,3.92
2023-04-08T02:13:13.951Z,3.50
2023-04-08T02:15:46.137Z,3.29
2023-04-08T02:18:17.490Z,3.96
2023-04-08T02:21:20.166Z,4.73
2023-04-08T02:23:51.410Z,5.31
2023-04-08T02:26:19.849Z,5.64
2023-04-08T02:28:49.462Z,5.90
2023-04-08T02:31:24.087Z,6.13
2023-04-08T02:33:52.258Z,6.36
2023-04-08T02:36:23.403Z,6.56
2023-04-08T02:38:52.267Z,6.74
2023-04-08T02:41:21.408Z,6.93
2023-04-08T02:43:49.897Z,7.13
2023-04-08T02:46:23.808Z,7.29
2023-04-08T02:49:43.137Z,7.45
2023-04-08T02:52:14.497Z,6.91
2023-04-08T02:54:43.270Z,5.92
2023-04-08T02:57:13.136Z,5.13
2023-04-08T02:59:43.998Z,4.54
2023-04-08T03:02:12.534Z,4.08
2023-04-08T03:04:41.291Z,3.66
2023-04-08T03:07:09.539Z,3.27
2023-04-08T03:09:38.009Z,2.91
2023-04-08T03:12:09.583Z,2.58
2023-04-08T03:14:38.286Z,2.30
2023-04-08T03:17:06.776Z,2.05
2023-04-08T03:19:35.034Z,1.85
2023-04-08T03:22:03.453Z,1.67
2023-04-08T03:24:32.325Z,1.48
2023-04-08T03:27:00.686Z,1.32
2023-04-08T03:29:29.061Z,1.73
2023-04-08T03:31:57.500Z,2.77
2023-04-08T03:34:26.139Z,3.68
2023-04-08T03:36:54.262Z,4.35
2023-04-08T03:39:22.555Z,4.79
2023-04-08T03:41:56.071Z,5.18
2023-04-08T03:44:24.216Z,5.48
2023-04-08T03:47:08.024Z,5.72
2023-04-08T03:49:41.497Z,6.04
2023-04-08T03:52:09.851Z,6.29
2023-04-08T03:54:38.534Z,6.50
2023-04-08T03:57:06.650Z,6.70
2023-04-08T03:59:39.564Z,6.88
2023-04-08T04:02:08.136Z,6.94
2023-04-08T04:05:01.485Z,6.15
2023-04-08T04:07:33.409Z,5.10
2023-04-08T04:10:18.331Z,4.37
2023-04-08T04:12:47.902Z,3.75
2023-04-08T04:15:45.425Z,3.31
2023-04-08T04:18:17.003Z,3.28
2023-04-08T04:20:56.820Z,4.29
2023-04-08T04:23:36.781Z,5.06
2023-04-08T04:26:16.936Z,5.60
2023-04-08T04:28:47.576Z,6.02
2023-04-08T04:31:51.580Z,6.36
2023-04-08T04:34:19.813Z,6.72
2023-04-08T04:38:00.268Z,6.92
2023-04-08T04:40:28.644Z,7.09
2023-04-08T04:42:57.204Z,7.24
2023-04-08T04:45:26.101Z,7.43
2023-04-08T04:47:57.784Z,7.59
2023-04-08T04:50:36.190Z,7.70
2023-04-08T04:53:25.285Z,7.11
2023-04-08T04:56:13.862Z,5.99
2023-04-08T04:58:42.625Z,5.36
2023-04-08T05:01:13.618Z,4.89
2023-04-08T05:04:33.065Z,4.55
2023-04-08T05:07:11.626Z,5.64
2023-04-08T05:09:40.320Z,6.85
2023-04-08T05:12:12.832Z,7.46
2023-04-08T05:15:04.684Z,7.94
2023-04-08T05:21:39.405Z,8.59
2023-04-08T05:24:07.633Z,8.10
2023-04-08T05:26:37.821Z,7.72
2023-04-08T05:29:06.277Z,7.51
2023-04-08T05:31:34.454Z,7.65
2023-04-08T05:34:02.768Z,8.61
2023-04-08T05:36:31.938Z,9.85
2023-04-08T05:39:01.472Z,10.38
2023-04-08T05:41:30.491Z,9.83
2023-04-08T05:43:58.668Z,9.08
2023-04-08T05:46:27.032Z,8.38
2023-04-08T05:48:55.212Z,7.99
2023-04-08T05:51:29.078Z,7.82
2023-04-08T05:53:57.225Z,8.46
2023-04-08T05:56:25.656Z,9.53
2023-04-08T05:58:53.681Z,10.40
2023-04-08T06:01:22.585Z,10.94
2023-04-08T06:03:52.971Z,10.79
2023-04-08T06:06:21.350Z,10.49
2023-04-08T06:08:49.944Z,10.22
2023-04-08T06:11:18.512Z,10.00
2023-04-08T06:13:46.953Z,9.87
2023-04-08T06:16:20.374Z,10.68
2023-04-08T06:18:49.642Z,12.09
2023-04-08T06:21:18.044Z,12.46
2023-04-08T06:24:07.091Z,11.79
2023-04-08T06:26:35.287Z,11.23
2023-04-08T06:29:03.927Z,10.87
2023-04-08T06:31:32.159Z,10.84
2023-04-08T06:34:00.531Z,11.59
2023-04-08T06:36:47.397Z,12.25
2023-04-08T06:39:17.077Z,12.13
2023-04-08T06:41:45.337Z,11.93
2023-04-08T06:44:21.563Z,11.89
2023-04-08T06:46:50.037Z,12.07
2023-04-08T06:49:18.274Z,12.33
2023-04-08T06:51:46.564Z,12.53
2023-04-08T06:54:14.768Z,12.80
2023-04-08T06:56:43.070Z,13.56
2023-04-08T06:59:11.569Z,14.10
2023-04-08T07:01:42.966Z,14.17
2023-04-08T07:04:28.036Z,14.24
2023-04-08T07:06:58.930Z,14.22
2023-04-08T07:09:27.474Z,14.78
2023-04-08T07:11:55.880Z,15.44
2023-04-08T07:15:19.983Z,15.77
2023-04-08T07:17:48.386Z,15.95
2023-04-08T07:20:17.106Z,15.78
2023-04-08T07:22:51.057Z,15.29
2023-04-08T07:25:19.862Z,14.87
2023-04-08T07:27:55.621Z,14.88
2023-04-08T07:30:26.813Z,14.33
2023-04-08T07:33:00.563Z,14.21
2023-04-08T07:35:39.839Z,14.25
2023-04-08T07:38:11.658Z,13.85
2023-04-08T07:40:43.116Z,13.42
2023-04-08T07:43:37.630Z,13.17
2023-04-08T07:46:21.297Z,13.43
2023-04-08T07:48:50.152Z,13.69
2023-04-08T07:52:39.298Z,14.07
2023-04-08T07:55:15.433Z,14.67
2023-04-08T07:57:43.767Z,14.91
2023-04-08T08:00:24.053Z,14.83
2023-04-08T08:02:52.471Z,14.93
2023-04-08T08:05:41.554Z,14.95
2023-04-08T08:08:11.962Z,14.53
2023-04-08T08:10:43.290Z,14.06
2023-04-08T08:13:15.159Z,13.72
2023-04-08T08:16:14.443Z,13.27
2023-04-08T08:19:14.095Z,12.82
2023-04-08T08:21:52.392Z,12.72
2023-04-08T08:24:20.982Z,12.79
2023-04-08T08:26:49.489Z,12.55
2023-04-08T08:29:38.359Z,12.36
2023-04-08T08:32:06.689Z,12.14
2023-04-08T08:34:35.207Z,12.02
2023-04-08T08:38:10.243Z,11.97
2023-04-08T08:40:58.906Z,11.93
2023-04-08T08:43:40.325Z,12.10
2023-04-08T08:46:33.125Z,12.39
2023-04-08T08:49:07.150Z,12.22
2023-04-08T08:51:35.349Z,12.32
2023-04-08T08:54:04.525Z,12.60
2023-04-08T08:56:38.586Z,12.40
2023-04-08T08:59:06.806Z,12.36
2023-04-08T09:01:44.226Z,12.50
2023-04-08T09:04:19.872Z,12.64
2023-04-08T09:07:52.529Z,12.58
2023-04-08T09:10:30.012Z,12.61
2023-04-08T09:12:58.833Z,12.54
2023-04-08T09:15:27.501Z,12.61
2023-04-08T09:18:46.020Z,12.57
2023-04-08T09:21:18.498Z,12.27
2023-04-08T09:23:53.311Z,12.27
2023-04-08T09:26:27.490Z,12.20
2023-04-08T09:32:03.032Z,12.28
2023-04-08T09:34:34.789Z,12.29
2023-04-08T09:37:25.906Z,12.30
2023-04-08T09:40:16.261Z,12.49
2023-04-08T09:43:05.752Z,12.65
2023-04-08T09:45:44.110Z,12.83
2023-04-08T09:48:26.610Z,13.02
2023-04-08T09:50:54.867Z,13.26
2023-04-08T09:53:59.155Z,13.57
2023-04-08T09:57:18.086Z,13.67
2023-04-08T10:00:01.453Z,13.50
2023-04-08T10:02:36.194Z,13.23
2023-04-08T10:05:08.525Z,13.13
2023-04-08T10:07:39.835Z,13.17
2023-04-08T10:10:11.950Z,13.23
2023-04-08T10:12:40.516Z,13.31
2023-04-08T10:15:25.869Z,13.43
2023-04-08T10:18:14.863Z,13.39
2023-04-08T10:20:43.889Z,13.41
2023-04-08T10:23:34.518Z,13.68
2023-04-08T10:26:03.756Z,13.92
2023-04-08T10:28:31.804Z,14.02
2023-04-08T10:31:00.164Z,14.02
2023-04-08T10:33:41.358Z,13.93
2023-04-08T10:36:13.496Z,14.39
2023-04-08T10:39:04.805Z,14.49
2023-04-08T10:41:35.974Z,14.24
2023-04-08T10:44:04.442Z,14.04
2023-04-08T10:46:41.608Z,13.85
2023-04-08T10:49:14.369Z,13.63
2023-04-08T10:52:01.652Z,13.53
2023-04-08T10:55:01.508Z,13.50
2023-04-08T10:58:13.317Z,13.54
2023-04-08T11:01:08.772Z,13.57
2023-04-08T11:03:40.134Z,13.57
2023-04-08T11:06:20.302Z,13.50
2023-04-08T11:08:48.608Z,13.55
2023-04-08T11:11:17.299Z,13.49
2023-04-08T11:13:53.226Z,13.28
2023-04-08T11:16:23.084Z,13.25
2023-04-08T11:18:51.756Z,13.24
2023-04-08T11:21:29.733Z,13.19
2023-04-08T11:24:10.084Z,13.18
2023-04-08T11:27:00.875Z,13.19
2023-04-08T11:29:29.495Z,13.31
2023-04-08T11:31:57.935Z,13.49
2023-04-08T11:34:29.580Z,13.54
2023-04-08T11:37:00.528Z,13.44
2023-04-08T11:39:32.541Z,13.22
2023-04-08T11:43:01.658Z,12.94
2023-04-08T11:46:00.804Z,12.67
2023-04-08T11:48:33.973Z,12.57
2023-04-08T11:51:12.727Z,12.66
2023-04-08T11:53:49.943Z,12.86
2023-04-08T11:56:47.173Z,13.03
2023-04-08T11:59:36.555Z,12.81
2023-04-08T12:02:31.998Z,12.67
2023-04-08T12:05:31.810Z,12.62
2023-04-08T12:08:01.924Z,12.56
2023-04-08T12:10:30.453Z,12.54
2023-04-08T12:12:59.017Z,12.51
2023-04-08T12:15:27.231Z,12.53
2023-04-08T12:18:33.092Z,12.61
2023-04-08T12:21:04.205Z,12.64
2023-04-08T12:23:53.670Z,12.67
2023-04-08T12:26:22.778Z,12.78
2023-04-08T12:28:51.127Z,12.92
2023-04-08T12:31:29.913Z,13.10
2023-04-08T12:34:47.452Z,13.24
2023-04-08T12:37:16.395Z,13.39
2023-04-08T12:39:44.875Z,13.46
2023-04-08T12:42:14.533Z,13.54
2023-04-08T12:44:48.270Z,13.68
2023-04-08T12:47:16.656Z,13.82
2023-04-08T12:50:17.272Z,13.89
2023-04-08T12:52:46.777Z,13.90
2023-04-08T12:55:35.515Z,13.90
2023-04-08T12:58:06.178Z,13.92
2023-04-08T13:00:51.629Z,13.88
2023-04-08T13:03:19.948Z,13.72
2023-04-08T13:05:51.372Z,13.59
2023-04-08T13:08:36.775Z,13.52
2023-04-08T13:11:05.444Z,13.44
2023-04-08T13:13:36.876Z,13.27
2023-04-08T13:16:05.230Z,13.12
2023-04-08T13:18:36.781Z,13.01
2023-04-08T13:21:16.653Z,12.96
2023-04-08T13:23:50.499Z,12.82
2023-04-08T13:26:19.154Z,12.66
2023-04-08T13:28:58.076Z,12.56
2023-04-08T13:31:32.706Z,12.53
2023-04-08T13:34:01.178Z,12.58
2023-04-08T13:36:49.628Z,12.68
2023-04-08T13:39:20.917Z,12.77
2023-04-08T13:41:49.199Z,12.81
2023-04-08T13:44:20.115Z,12.81
2023-04-08T13:46:48.570Z,12.79
2023-04-08T13:49:16.926Z,12.81
2023-04-08T13:51:45.059Z,12.77
2023-04-08T13:54:27.369Z,12.63
2023-04-08T13:56:56.067Z,12.64
2023-04-08T13:59:25.536Z,12.69
2023-04-08T14:01:57.014Z,12.79
2023-04-08T14:04:25.460Z,12.83
2023-04-08T14:06:58.280Z,12.71
2023-04-08T14:09:29.653Z,12.61
2023-04-08T14:12:06.584Z,12.36
2023-04-08T14:14:34.771Z,12.30
2023-04-08T14:17:11.977Z,12.34
2023-04-08T14:19:40.877Z,12.35
2023-04-08T14:22:12.474Z,12.28
2023-04-08T14:24:43.737Z,12.22
2023-04-08T14:27:12.051Z,12.14
2023-04-08T14:29:40.195Z,12.10
2023-04-08T14:32:08.864Z,12.02
2023-04-08T14:34:57.274Z,11.94
2023-04-08T14:37:45.864Z,11.95
2023-04-08T14:40:28.617Z,11.87
2023-04-08T14:42:56.760Z,11.83
2023-04-08T14:45:24.969Z,11.76
2023-04-08T14:47:54.450Z,11.68
2023-04-08T14:50:22.749Z,11.61
2023-04-08T14:52:54.272Z,11.57
2023-04-08T14:55:22.740Z,11.50
2023-04-08T14:57:51.099Z,11.44
2023-04-08T15:00:28.625Z,11.39
2023-04-08T15:02:57.169Z,11.32
2023-04-08T15:05:25.831Z,11.28
2023-04-08T15:07:54.124Z,11.23
2023-04-08T15:10:22.211Z,11.15
2023-04-08T15:12:50.619Z,11.11
2023-04-08T15:15:31.368Z,11.04
2023-04-08T15:17:59.894Z,10.96
2023-04-08T15:20:28.288Z,10.88
2023-04-08T15:22:59.426Z,10.81
2023-04-08T15:25:27.734Z,10.77
2023-04-08T15:27:55.922Z,10.73
2023-04-08T15:30:36.389Z,10.68
2023-04-08T15:33:07.825Z,10.65
2023-04-08T15:35:38.810Z,10.60
2023-04-08T15:38:09.955Z,10.57
2023-04-08T15:40:38.138Z,10.54
2023-04-08T15:43:06.941Z,10.51
2023-04-08T15:45:42.801Z,10.49
2023-04-08T15:48:11.826Z,10.47
2023-04-08T15:50:40.659Z,10.46
2023-04-08T15:53:09.301Z,10.45
2023-04-08T15:55:39.685Z,10.44
2023-04-08T15:58:07.908Z,10.42
2023-04-08T16:00:48.077Z,10.37
2023-04-08T16:03:16.533Z,10.31
2023-04-08T16:05:44.831Z,11.01
2023-04-08T16:08:13.054Z,12.16
2023-04-08T16:10:44.267Z,12.89
2023-04-08T16:13:12.662Z,13.30
2023-04-08T16:15:40.863Z,13.60
2023-04-08T16:18:09.339Z,13.83
2023-04-08T16:20:45.124Z,13.99
2023-04-08T16:23:15.625Z,14.18
2023-04-08T16:25:44.730Z,14.34
2023-04-08T16:28:13.403Z,14.48
2023-04-08T16:30:44.666Z,14.37
2023-04-08T16:33:16.389Z,13.54
2023-04-08T16:35:44.562Z,12.78
2023-04-08T16:38:13.144Z,12.21
2023-04-08T16:40:41.502Z,11.76
2023-04-08T16:43:18.044Z,11.41
2023-04-08T16:46:15.238Z,11.12
2023-04-08T16:48:46.643Z,10.81
2023-04-08T16:51:17.725Z,10.54
2023-04-08T16:53:46.249Z,10.31
2023-04-08T16:56:44.421Z,10.07
2023-04-08T16:59:33.204Z,9.81
2023-04-08T17:02:01.882Z,9.65
2023-04-08T17:04:30.756Z,9.54
2023-04-08T17:07:31.865Z,10.17
2023-04-08T17:10:03.873Z,11.25
2023-04-08T17:12:32.839Z,11.87
2023-04-08T17:15:01.741Z,12.28
2023-04-08T17:17:40.218Z,12.64
2023-04-08T17:20:51.778Z,12.99
2023-04-08T17:23:35.058Z,13.22
2023-04-08T17:26:28.308Z,12.92
2023-04-08T17:29:24.305Z,12.06
2023-04-08T17:31:52.610Z,11.28
2023-04-08T17:34:21.082Z,11.46
2023-04-08T17:36:52.615Z,12.14
2023-04-08T17:39:20.694Z,12.58
2023-04-08T17:41:51.481Z,12.88
2023-04-08T17:44:19.775Z,13.09
2023-04-08T17:47:49.614Z,13.29
2023-04-08T17:50:18.217Z,13.52
2023-04-08T17:52:47.863Z,13.69
2023-04-08T17:55:37.695Z,13.85
2023-04-08T17:58:05.934Z,13.92
2023-04-08T18:00:34.347Z,14.01
2023-04-08T18:03:02.717Z,14.08
2023-04-08T18:05:31.544Z,14.16
2023-04-08T18:07:59.979Z,14.26
2023-04-08T18:10:29.042Z,14.32
2023-04-08T18:13:07.993Z,14.38
2023-04-08T18:15:39.255Z,14.42
2023-04-08T18:18:27.991Z,14.46
2023-04-08T18:21:10.460Z,14.50
2023-04-08T18:23:42.047Z,14.23
2023-04-08T18:26:10.971Z,13.31
2023-04-08T18:28:39.269Z,12.50
2023-04-08T18:31:16.813Z,11.86
2023-04-08T18:33:45.075Z,11.36
2023-04-08T18:36:14.043Z,11.55
2023-04-08T18:38:45.296Z,12.33
2023-04-08T18:41:13.864Z,12.90
2023-04-08T18:43:42.165Z,13.15
2023-04-08T18:46:10.586Z,13.29
2023-04-08T18:48:41.943Z,13.41
2023-04-08T18:51:10.185Z,13.52
2023-04-08T18:53:42.029Z,13.62
2023-04-08T18:56:17.514Z,13.71
2023-04-08T18:58:47.132Z,13.82
2023-04-08T19:01:29.185Z,13.86
2023-04-08T19:03:57.733Z,13.92
2023-04-08T19:06:26.257Z,13.98
2023-04-08T19:08:54.358Z,14.03
2023-04-08T19:11:26.568Z,14.07
2023-04-08T19:13:58.520Z,13.87
2023-04-08T19:16:26.638Z,13.03
2023-04-08T19:18:55.176Z,12.26
2023-04-08T19:21:23.455Z,11.68
2023-04-08T19:23:51.929Z,11.21
2023-04-08T19:26:20.369Z,10.79
2023-04-08T19:28:48.798Z,10.44
2023-04-08T19:31:23.544Z,10.51
2023-04-08T19:33:51.890Z,11.29
2023-04-08T19:36:20.169Z,11.89
2023-04-08T19:38:48.392Z,12.31
2023-04-08T19:41:16.774Z,12.61
2023-04-08T19:43:52.953Z,12.85
2023-04-08T19:46:24.787Z,13.05
2023-04-08T19:48:58.840Z,13.21
2023-04-08T19:51:27.613Z,13.36
2023-04-08T19:53:56.238Z,13.49
2023-04-08T19:56:24.329Z,13.61
2023-04-08T19:58:52.966Z,13.68
2023-04-08T20:01:21.516Z,13.73
2023-04-08T20:03:52.940Z,13.78
2023-04-08T20:06:21.664Z,13.86
2023-04-08T20:08:52.645Z,13.91
2023-04-08T20:11:21.154Z,13.97
2023-04-08T20:13:51.416Z,14.00
2023-04-08T20:16:20.060Z,14.02
2023-04-08T20:18:48.319Z,14.00
2023-04-08T20:21:17.094Z,13.28
2023-04-08T20:23:45.800Z,12.35
2023-04-08T20:26:14.375Z,11.58
2023-04-08T20:28:43.581Z,11.00
2023-04-08T20:31:11.769Z,10.94
2023-04-08T20:33:44.008Z,11.59
2023-04-08T20:36:12.525Z,12.22
2023-04-08T20:38:41.030Z,12.57
2023-04-08T20:41:09.113Z,12.82
2023-04-08T20:43:37.239Z,13.08
2023-04-08T20:46:05.379Z,13.25
2023-04-08T20:48:33.598Z,13.36
2023-04-08T20:51:04.779Z,13.45
2023-04-08T20:53:34.579Z,13.56
2023-04-08T20:56:05.891Z,13.64
2023-04-08T20:58:37.321Z,13.67
2023-04-08T21:01:05.996Z,13.70
2023-04-08T21:03:34.521Z,13.76
2023-04-08T21:06:02.737Z,13.83
2023-04-08T21:08:31.007Z,13.75
2023-04-08T21:10:59.442Z,12.95
2023-04-08T21:13:27.706Z,12.10
2023-04-08T21:15:55.954Z,11.44
2023-04-08T21:18:47.456Z,10.87
2023-04-08T21:21:15.685Z,10.47
2023-04-08T21:23:43.864Z,10.81
2023-04-08T21:26:15.499Z,11.49
2023-04-08T21:28:46.659Z,12.04
2023-04-08T21:31:14.828Z,12.38
2023-04-08T21:33:43.461Z,12.63
2023-04-08T21:36:11.596Z,12.80
2023-04-08T21:38:39.944Z,12.92
2023-04-08T21:41:08.237Z,13.03
2023-04-08T21:43:36.769Z,13.13
2023-04-08T21:46:28.533Z,13.23
2023-04-08T21:49:26.331Z,13.33
2023-04-08T21:51:54.598Z,13.44
2023-04-08T21:54:43.113Z,13.53
2023-04-08T21:57:13.905Z,13.37
2023-04-08T21:59:42.022Z,12.53
2023-04-08T22:02:11.554Z,11.71
2023-04-08T22:04:40.001Z,11.05
2023-04-08T22:07:08.293Z,10.53
2023-04-08T22:09:36.518Z,10.08
2023-04-08T22:12:21.166Z,10.15
2023-04-08T22:14:49.405Z,10.93
2023-04-08T22:17:20.831Z,11.49
2023-04-08T22:19:51.646Z,11.87
2023-04-08T22:22:19.932Z,12.15
2023-04-08T22:24:51.080Z,12.35
2023-04-08T22:27:29.410Z,12.49
2023-04-08T22:29:57.605Z,12.57
2023-04-08T22:32:26.090Z,12.63
2023-04-08T22:35:03.832Z,12.69
2023-04-08T22:37:44.010Z,12.77
2023-04-08T22:40:12.416Z,12.86
2023-04-08T22:42:42.199Z,12.92
2023-04-08T22:45:21.857Z,12.95
2023-04-08T22:47:50.115Z,13.03
2023-04-08T22:50:19.038Z,13.13
2023-04-08T22:52:47.324Z,13.25
2023-04-08T22:55:15.718Z,13.33
2023-04-08T22:57:44.044Z,13.39
2023-04-08T23:00:12.985Z,12.94
2023-04-08T23:02:41.267Z,12.00
2023-04-08T23:05:10.133Z,11.19
2023-04-08T23:07:38.245Z,10.56
2023-04-08T23:10:07.501Z,10.18
2023-04-08T23:13:38.845Z,10.63
2023-04-08T23:16:18.150Z,11.53
2023-04-08T23:19:03.164Z,11.88
2023-04-08T23:21:31.311Z,12.11
2023-04-08T23:23:59.497Z,12.29
2023-04-08T23:26:27.969Z,12.43
2023-04-08T23:28:56.466Z,12.56
2023-04-08T23:31:27.732Z,12.67
2023-04-08T23:33:56.231Z,12.76
2023-04-08T23:36:24.253Z,12.81
2023-04-08T23:38:52.718Z,12.84
2023-04-08T23:41:21.233Z,12.89
2023-04-08T23:43:49.421Z,12.91
2023-04-08T23:46:17.551Z,12.93
2023-04-08T23:48:46.038Z,12.98
2023-04-08T23:51:14.406Z,13.02
2023-04-08T23:53:42.671Z,13.02
2023-04-08T23:56:11.269Z,12.42
2023-04-08T23:58:39.664Z,11.44
